Time;durP1;ratioP1;P1;durP2;ratioP2;P2;SDS_P1;SDS_P2;PMS_P1;PMS_P2;Temp;Humidity;BMP_temperature;BMP_pressure;BME280_temperature;BME280_humidity;BME280_pressure;Samples;Min_cycle;Max_cycle;Signal;HPM_P1;HPM_P2
2021/08/19 00:01:15;;;;;;;18.17;15.70;;;;;;;;;;5096480;28;20476;-70
2021/08/19 00:03:42;;;;;;;18.10;15.03;;;;;;;;;;5096532;28;20538;-70
2021/08/19 00:06:09;;;;;;;17.93;15.70;;;;;;;;;;5096472;28;20435;-70
2021/08/19 00:08:38;;;;;;;18.50;15.27;;;;;;;;;;5096403;28;20444;-69
2021/08/19 00:11:05;;;;;;;21.23;17.23;;;;;;;;;;5096347;28;20452;-70
2021/08/19 00:13:33;;;;;;;21.33;18.17;;;;;;;;;;5096352;28;20444;-70
2021/08/19 00:16:00;;;;;;;21.90;18.37;;;;;;;;;;5096318;28;20444;-70
2021/08/19 00:18:27;;;;;;;23.93;19.37;;;;;;;;;;5096751;28;20449;-70
2021/08/19 00:20:54;;;;;;;24.17;19.13;;;;;;;;;;5096134;28;20445;-70
2021/08/19 00:23:22;;;;;;;25.43;20.30;;;;;;;;;;5096054;28;20514;-70
2021/08/19 00:25:50;;;;;;;25.70;21.33;;;;;;;;;;5096085;28;20967;-70
2021/08/19 00:28:17;;;;;;;24.90;20.80;;;;;;;;;;5096104;28;20442;-70
2021/08/19 00:30:44;;;;;;;26.67;20.40;;;;;;;;;;5096300;28;20455;-70
2021/08/19 00:33:12;;;;;;;24.03;21.40;;;;;;;;;;5095639;28;20445;-69
2021/08/19 00:35:39;;;;;;;24.00;19.87;;;;;;;;;;5096182;28;20436;-70
2021/08/19 00:38:06;;;;;;;27.53;22.87;;;;;;;;;;5096527;28;20453;-70
2021/08/19 00:40:34;;;;;;;26.97;21.83;;;;;;;;;;5095849;28;20963;-70
2021/08/19 00:43:05;;;;;;;23.30;20.27;;;;;;;;;;5095713;28;20472;-70
2021/08/19 00:45:33;;;;;;;23.37;20.87;;;;;;;;;;5095836;28;20437;-70
2021/08/19 00:48:00;;;;;;;25.47;20.20;;;;;;;;;;5096257;28;20443;-70
2021/08/19 00:50:27;;;;;;;24.47;22.00;;;;;;;;;;5095109;28;20436;-70
2021/08/19 00:52:54;;;;;;;23.53;21.03;;;;;;;;;;5095859;28;20447;-69
2021/08/19 00:55:22;;;;;;;25.23;22.57;;;;;;;;;;5095539;28;20943;-70
2021/08/19 00:57:49;;;;;;;23.40;21.00;;;;;;;;;;5096011;28;20428;-70
2021/08/19 01:00:17;;;;;;;23.93;21.43;;;;;;;;;;5095701;28;20440;-70
2021/08/19 01:02:46;;;;;;;23.60;20.30;;;;;;;;;;5095017;28;20582;-70
2021/08/19 01:05:14;;;;;;;26.77;22.67;;;;;;;;;;5095032;28;20479;-69
2021/08/19 01:07:41;;;;;;;26.73;19.83;;;;;;;;;;5095321;28;20443;-69
2021/08/19 01:10:09;;;;;;;22.87;20.20;;;;;;;;;;5094981;28;20461;-69
2021/08/19 01:12:36;;;;;;;25.00;20.87;;;;;;;;;;5095236;28;20447;-69
2021/08/19 01:15:03;;;;;;;22.80;20.07;;;;;;;;;;5095162;28;20532;-70
2021/08/19 01:17:32;;;;;;;22.63;18.87;;;;;;;;;;5095198;28;20532;-70
2021/08/19 01:19:59;;;;;;;23.47;19.60;;;;;;;;;;5095100;28;20447;-70
2021/08/19 01:22:27;;;;;;;23.47;19.50;;;;;;;;;;5094713;28;20564;-70
2021/08/19 01:24:54;;;;;;;24.23;19.07;;;;;;;;;;5095094;28;20439;-69
2021/08/19 01:27:23;;;;;;;23.00;18.40;;;;;;;;;;5095292;28;20440;-70
2021/08/19 01:29:51;;;;;;;22.43;18.57;;;;;;;;;;5095321;28;20450;-69
2021/08/19 01:32:19;;;;;;;25.63;20.10;;;;;;;;;;5094472;28;20474;-69
2021/08/19 01:34:46;;;;;;;22.50;19.07;;;;;;;;;;5094489;28;20535;-69
2021/08/19 01:37:14;;;;;;;23.47;19.37;;;;;;;;;;5095325;28;20788;-70
2021/08/19 01:39:41;;;;;;;26.73;20.57;;;;;;;;;;5094676;28;20440;-69
2021/08/19 01:42:08;;;;;;;24.27;20.47;;;;;;;;;;5094984;28;20482;-70
2021/08/19 01:44:37;;;;;;;26.70;20.80;;;;;;;;;;5094251;28;20547;-70
2021/08/19 01:47:06;;;;;;;24.70;19.30;;;;;;;;;;5094594;28;20440;-70
2021/08/19 01:49:34;;;;;;;24.07;19.47;;;;;;;;;;5094891;28;20480;-69
2021/08/19 01:52:02;;;;;;;24.33;19.03;;;;;;;;;;5094365;28;20524;-70
2021/08/19 01:54:29;;;;;;;27.30;21.00;;;;;;;;;;5094402;28;20448;-70
2021/08/19 01:56:57;;;;;;;24.20;19.73;;;;;;;;;;5094098;28;21053;-70
2021/08/19 01:59:24;;;;;;;27.47;21.17;;;;;;;;;;5094414;28;20443;-70
2021/08/19 02:01:53;;;;;;;25.80;21.73;;;;;;;;;;5093372;28;20836;-70
2021/08/19 02:04:20;;;;;;;27.67;21.23;;;;;;;;;;5094287;28;20439;-70
2021/08/19 02:06:47;;;;;;;27.10;21.80;;;;;;;;;;5094217;28;20446;-70
2021/08/19 02:09:14;;;;;;;34.30;24.30;;;;;;;;;;5094182;28;20451;-70
2021/08/19 02:11:41;;;;;;;30.03;23.80;;;;;;;;;;5094163;28;20440;-69
2021/08/19 02:14:09;;;;;;;31.23;22.67;;;;;;;;;;5094259;28;20435;-70
2021/08/19 02:16:36;;;;;;;29.83;21.47;;;;;;;;;;5094501;28;20532;-69
2021/08/19 02:19:04;;;;;;;28.83;24.43;;;;;;;;;;5093736;28;20927;-69
2021/08/19 02:21:32;;;;;;;32.57;22.40;;;;;;;;;;5093923;28;20439;-70
2021/08/19 02:23:59;;;;;;;34.80;25.53;;;;;;;;;;5094203;28;20568;-70
2021/08/19 02:26:26;;;;;;;29.27;22.93;;;;;;;;;;5093545;28;20444;-70
2021/08/19 02:28:53;;;;;;;37.90;27.23;;;;;;;;;;5093505;28;20449;-70
2021/08/19 02:31:21;;;;;;;32.77;24.37;;;;;;;;;;5093798;28;20462;-70
2021/08/19 02:33:48;;;;;;;29.50;25.67;;;;;;;;;;5093846;28;20526;-70
2021/08/19 02:36:16;;;;;;;33.57;25.73;;;;;;;;;;5093839;28;20526;-70
2021/08/19 02:38:44;;;;;;;34.93;27.70;;;;;;;;;;5093505;28;20913;-70
2021/08/19 02:41:11;;;;;;;37.17;26.40;;;;;;;;;;5094171;28;20827;-70
2021/08/19 02:43:42;;;;;;;32.50;26.33;;;;;;;;;;5094209;28;20474;-70
2021/08/19 02:46:09;;;;;;;32.03;23.10;;;;;;;;;;5094262;28;20457;-70
2021/08/19 02:48:37;;;;;;;24.00;18.70;;;;;;;;;;5093623;28;20441;-70
2021/08/19 02:51:04;;;;;;;26.63;21.60;;;;;;;;;;5093662;28;20450;-70
2021/08/19 02:53:32;;;;;;;27.03;21.97;;;;;;;;;;5093858;28;20461;-70
2021/08/19 02:56:00;;;;;;;27.70;22.80;;;;;;;;;;5093297;28;20441;-69
2021/08/19 02:58:27;;;;;;;27.87;23.30;;;;;;;;;;5093595;28;20838;-69
2021/08/19 03:00:54;;;;;;;30.67;23.20;;;;;;;;;;5093562;28;20471;-69
2021/08/19 03:03:21;;;;;;;27.07;22.97;;;;;;;;;;5093401;28;20479;-70
2021/08/19 03:05:48;;;;;;;27.03;21.47;;;;;;;;;;5093204;28;20480;-69
2021/08/19 03:08:16;;;;;;;26.73;20.77;;;;;;;;;;5093094;28;20448;-70
2021/08/19 03:10:44;;;;;;;31.20;21.43;;;;;;;;;;5093157;28;20959;-70
2021/08/19 03:13:11;;;;;;;26.20;20.27;;;;;;;;;;5094889;28;20530;-70
2021/08/19 03:15:38;;;;;;;27.30;21.97;;;;;;;;;;5097631;28;20440;-69
2021/08/19 03:18:06;;;;;;;22.73;19.80;;;;;;;;;;5097470;28;20436;-70
2021/08/19 03:20:33;;;;;;;26.30;19.17;;;;;;;;;;5097742;28;20440;-69
2021/08/19 03:23:01;;;;;;;25.20;21.13;;;;;;;;;;5097732;28;20504;-70
2021/08/19 03:25:28;;;;;;;25.33;21.83;;;;;;;;;;5097334;28;20537;-70
2021/08/19 03:28:01;;;;;;;23.10;20.13;;;;;;;;;;5096932;28;20532;-69
2021/08/19 03:30:28;;;;;;;26.10;20.73;;;;;;;;;;5097365;28;20438;-69
2021/08/19 03:32:55;;;;;;;27.97;21.83;;;;;;;;;;5097101;28;20439;-69
2021/08/19 03:35:22;;;;;;;27.80;20.70;;;;;;;;;;5097088;28;20436;-69
2021/08/19 03:37:50;;;;;;;27.50;22.27;;;;;;;;;;5097045;28;20443;-69
2021/08/19 03:40:18;;;;;;;25.57;22.47;;;;;;;;;;5097350;28;20527;-70
2021/08/19 03:42:46;;;;;;;27.30;22.67;;;;;;;;;;5096550;28;20484;-69
2021/08/19 03:45:18;;;;;;;30.80;23.57;;;;;;;;;;5096938;28;20440;-69
2021/08/19 03:47:45;;;;;;;27.20;22.50;;;;;;;;;;5096627;28;20425;-69
2021/08/19 03:50:13;;;;;;;34.07;24.53;;;;;;;;;;5096515;28;20444;-69
2021/08/19 03:52:40;;;;;;;29.40;23.90;;;;;;;;;;5096475;28;20444;-69
2021/08/19 03:55:08;;;;;;;32.30;24.17;;;;;;;;;;5096715;28;20454;-69
2021/08/19 03:57:35;;;;;;;31.17;25.27;;;;;;;;;;5096340;28;20989;-70
2021/08/19 04:00:02;;;;;;;33.10;23.73;;;;;;;;;;5096839;28;20806;-69
2021/08/19 04:02:31;;;;;;;30.40;23.83;;;;;;;;;;5096743;28;20476;-69
2021/08/19 04:04:58;;;;;;;36.70;27.67;;;;;;;;;;5096301;28;20450;-69
2021/08/19 04:07:25;;;;;;;36.27;24.53;;;;;;;;;;5096857;28;20925;-69
2021/08/19 04:09:52;;;;;;;29.23;23.47;;;;;;;;;;5096489;28;20448;-69
2021/08/19 04:12:19;;;;;;;30.30;23.80;;;;;;;;;;5096414;28;20447;-69
2021/08/19 04:14:47;;;;;;;34.10;25.97;;;;;;;;;;5096307;28;20435;-70
2021/08/19 04:17:14;;;;;;;33.93;25.87;;;;;;;;;;5096341;28;20502;-69
2021/08/19 04:19:43;;;;;;;32.10;25.20;;;;;;;;;;5096676;28;20486;-70
2021/08/19 04:22:11;;;;;;;41.17;26.90;;;;;;;;;;5095995;28;20473;-70
2021/08/19 04:24:39;;;;;;;33.63;26.73;;;;;;;;;;5095547;28;20420;-70
2021/08/19 04:27:06;;;;;;;32.73;25.20;;;;;;;;;;5096211;28;20527;-69
2021/08/19 04:29:33;;;;;;;30.80;26.70;;;;;;;;;;5096104;28;20822;-69
2021/08/19 04:32:01;;;;;;;31.70;25.90;;;;;;;;;;5078752;28;20463;-69
2021/08/19 04:34:28;;;;;;;33.80;24.60;;;;;;;;;;5074580;28;20480;-69
2021/08/19 04:36:56;;;;;;;36.90;24.90;;;;;;;;;;5074507;28;20447;-69
2021/08/19 04:39:23;;;;;;;31.03;24.70;;;;;;;;;;5074551;28;20449;-70
2021/08/19 04:41:51;;;;;;;32.83;26.20;;;;;;;;;;5075122;28;20444;-69
2021/08/19 04:44:18;;;;;;;33.67;27.97;;;;;;;;;;5074819;28;20998;-69
2021/08/19 04:46:45;;;;;;;36.03;27.70;;;;;;;;;;5075239;28;20439;-69
2021/08/19 04:49:12;;;;;;;33.97;26.60;;;;;;;;;;5075385;28;20444;-69
2021/08/19 04:51:41;;;;;;;35.57;26.60;;;;;;;;;;5074365;28;20455;-69
2021/08/19 04:54:10;;;;;;;38.33;25.30;;;;;;;;;;5075141;28;20456;-69
2021/08/19 04:56:37;;;;;;;32.27;25.87;;;;;;;;;;5075269;28;20449;-69
2021/08/19 04:59:05;;;;;;;30.10;24.97;;;;;;;;;;5074918;28;20445;-69
2021/08/19 05:01:32;;;;;;;29.17;23.97;;;;;;;;;;5072529;28;20446;-69
2021/08/19 05:03:59;;;;;;;32.77;25.17;;;;;;;;;;5074897;28;20563;-69
2021/08/19 05:06:27;;;;;;;32.13;26.30;;;;;;;;;;5075096;28;20450;-69
2021/08/19 05:08:54;;;;;;;31.73;25.20;;;;;;;;;;5074645;28;20445;-69
2021/08/19 05:11:23;;;;;;;34.67;25.20;;;;;;;;;;5074638;28;20455;-69
2021/08/19 05:13:50;;;;;;;32.57;25.20;;;;;;;;;;5074794;28;20789;-69
2021/08/19 05:16:18;;;;;;;26.73;23.60;;;;;;;;;;5074567;28;20578;-69
2021/08/19 05:18:45;;;;;;;38.73;24.77;;;;;;;;;;5074458;28;20470;-69
2021/08/19 05:21:13;;;;;;;33.90;26.33;;;;;;;;;;5073352;28;20437;-69
2021/08/19 05:23:41;;;;;;;33.83;23.67;;;;;;;;;;5073555;28;20485;-69
2021/08/19 05:26:08;;;;;;;27.70;21.20;;;;;;;;;;5073644;28;20439;-70
2021/08/19 05:28:36;;;;;;;32.57;24.77;;;;;;;;;;5073041;28;20445;-69
2021/08/19 05:31:04;;;;;;;28.57;22.00;;;;;;;;;;5073086;28;20447;-69
2021/08/19 05:33:31;;;;;;;27.97;21.13;;;;;;;;;;5071621;28;20441;-69
2021/08/19 05:35:58;;;;;;;29.40;22.20;;;;;;;;;;5074215;28;20803;-69
2021/08/19 05:38:26;;;;;;;30.73;21.47;;;;;;;;;;5074334;28;20433;-71
2021/08/19 05:40:53;;;;;;;28.70;20.47;;;;;;;;;;5074136;28;20443;-68
2021/08/19 05:43:21;;;;;;;27.13;18.63;;;;;;;;;;5073459;28;20472;-69
2021/08/19 05:45:50;;;;;;;32.00;20.87;;;;;;;;;;5074267;28;20455;-69
2021/08/19 05:48:17;;;;;;;30.47;21.90;;;;;;;;;;5074255;28;20798;-69
2021/08/19 05:50:44;;;;;;;29.13;20.73;;;;;;;;;;5074200;28;20538;-69
2021/08/19 05:53:11;;;;;;;30.57;21.37;;;;;;;;;;5073090;28;20938;-69
2021/08/19 05:55:38;;;;;;;26.33;19.20;;;;;;;;;;5074047;28;20470;-69
2021/08/19 05:58:05;;;;;;;29.10;20.40;;;;;;;;;;5073976;28;20448;-68
2021/08/19 06:00:34;;;;;;;26.70;20.10;;;;;;;;;;5074010;28;20469;-68
2021/08/19 06:03:03;;;;;;;28.83;23.07;;;;;;;;;;5072118;28;20480;-68
2021/08/19 06:05:30;;;;;;;28.57;20.60;;;;;;;;;;5073248;28;20927;-69
2021/08/19 06:07:57;;;;;;;30.17;21.37;;;;;;;;;;5074504;28;20441;-69
2021/08/19 06:10:24;;;;;;;27.90;21.27;;;;;;;;;;5073390;28;20445;-69
2021/08/19 06:12:52;;;;;;;32.20;21.70;;;;;;;;;;5073383;28;20444;-69
2021/08/19 06:15:19;;;;;;;34.23;23.17;;;;;;;;;;5073397;28;20962;-69
2021/08/19 06:17:46;;;;;;;30.13;21.23;;;;;;;;;;5073200;28;20447;-69
2021/08/19 06:20:15;;;;;;;29.57;22.70;;;;;;;;;;5074565;28;20486;-69
2021/08/19 06:22:42;;;;;;;29.63;20.80;;;;;;;;;;5073098;28;20570;-70
2021/08/19 06:25:10;;;;;;;32.37;21.77;;;;;;;;;;5073521;28;20492;-70
2021/08/19 06:27:37;;;;;;;32.43;23.27;;;;;;;;;;5073864;28;20761;-70
2021/08/19 06:30:04;;;;;;;35.73;22.60;;;;;;;;;;5073185;28;20451;-69
2021/08/19 06:32:32;;;;;;;34.53;21.03;;;;;;;;;;5072238;28;20451;-70
2021/08/19 06:34:59;;;;;;;33.27;23.00;;;;;;;;;;5073380;28;20473;-70
2021/08/19 06:37:27;;;;;;;34.17;23.30;;;;;;;;;;5073522;28;20441;-70
2021/08/19 06:39:55;;;;;;;38.80;24.20;;;;;;;;;;5073637;28;20447;-69
2021/08/19 06:42:22;;;;;;;28.60;21.53;;;;;;;;;;5073285;28;20815;-70
2021/08/19 06:44:49;;;;;;;33.77;21.33;;;;;;;;;;5073548;28;20484;-70
2021/08/19 06:47:16;;;;;;;33.87;23.83;;;;;;;;;;5073130;28;20447;-70
2021/08/19 06:49:44;;;;;;;30.93;22.50;;;;;;;;;;5072855;28;20436;-70
2021/08/19 06:52:12;;;;;;;32.60;21.67;;;;;;;;;;5073179;28;20560;-70
2021/08/19 06:54:40;;;;;;;24.87;18.07;;;;;;;;;;5073673;28;20450;-70
2021/08/19 06:57:07;;;;;;;32.03;18.93;;;;;;;;;;5073563;28;20434;-69
2021/08/19 06:59:35;;;;;;;22.23;16.10;;;;;;;;;;5073345;28;20449;-69
2021/08/19 07:02:02;;;;;;;20.50;14.80;;;;;;;;;;5071633;28;20451;-69
2021/08/19 07:04:29;;;;;;;20.00;15.17;;;;;;;;;;5072482;28;20572;-69
2021/08/19 07:06:56;;;;;;;26.47;15.13;;;;;;;;;;5073290;28;20802;-68
2021/08/19 07:09:24;;;;;;;20.00;14.10;;;;;;;;;;5073208;28;20448;-68
2021/08/19 07:11:54;;;;;;;18.90;14.50;;;;;;;;;;5073224;28;20450;-68
2021/08/19 07:14:21;;;;;;;22.27;13.30;;;;;;;;;;5072992;28;20861;-68
2021/08/19 07:16:48;;;;;;;19.70;13.30;;;;;;;;;;5072991;28;20798;-68
2021/08/19 07:19:15;;;;;;;19.30;13.83;;;;;;;;;;5073111;28;20433;-67
2021/08/19 07:21:44;;;;;;;22.43;15.63;;;;;;;;;;5072620;28;20923;-67
2021/08/19 07:24:12;;;;;;;18.47;14.43;;;;;;;;;;5072547;28;20482;-67
2021/08/19 07:26:39;;;;;;;21.33;15.10;;;;;;;;;;5073502;28;20445;-67
2021/08/19 07:29:07;;;;;;;18.80;15.20;;;;;;;;;;5072955;28;20781;-67
2021/08/19 07:31:36;;;;;;;20.77;15.97;;;;;;;;;;5072772;28;20535;-67
2021/08/19 07:34:03;;;;;;;20.73;15.73;;;;;;;;;;5070956;28;20858;-67
2021/08/19 07:36:30;;;;;;;22.57;16.13;;;;;;;;;;5070659;28;20975;-67
2021/08/19 07:39:02;;;;;;;22.37;15.00;;;;;;;;;;5072279;28;20524;-67
2021/08/19 07:41:29;;;;;;;22.20;14.20;;;;;;;;;;5072771;28;20443;-67
2021/08/19 07:43:57;;;;;;;17.67;14.23;;;;;;;;;;5071926;28;20488;-67
2021/08/19 07:46:25;;;;;;;21.70;14.87;;;;;;;;;;5071542;28;20441;-67
2021/08/19 07:48:55;;;;;;;24.83;17.53;;;;;;;;;;5071895;28;20468;-67
2021/08/19 07:51:22;;;;;;;21.73;17.07;;;;;;;;;;5071943;28;20483;-67
2021/08/19 07:53:50;;;;;;;28.27;17.40;;;;;;;;;;5071349;28;20821;-67
2021/08/19 07:56:17;;;;;;;20.73;16.60;;;;;;;;;;5071422;28;20444;-67
2021/08/19 07:58:44;;;;;;;24.77;18.30;;;;;;;;;;5071861;28;20942;-66
2021/08/19 08:01:12;;;;;;;22.60;16.10;;;;;;;;;;5074937;28;20467;-66
2021/08/19 08:03:40;;;;;;;23.00;17.83;;;;;;;;;;5075929;28;20474;-66
2021/08/19 08:06:07;;;;;;;24.87;16.00;;;;;;;;;;5074262;28;20893;-66
2021/08/19 08:08:35;;;;;;;27.90;18.33;;;;;;;;;;5075958;28;20446;-66
2021/08/19 08:11:02;;;;;;;23.70;15.90;;;;;;;;;;5076396;28;20441;-66
2021/08/19 08:13:29;;;;;;;23.77;17.13;;;;;;;;;;5076031;28;20552;-66
2021/08/19 08:15:56;;;;;;;20.13;16.83;;;;;;;;;;5075983;28;20444;-66
2021/08/19 08:18:23;;;;;;;23.80;17.60;;;;;;;;;;5075782;28;20450;-67
2021/08/19 08:20:52;;;;;;;29.77;20.60;;;;;;;;;;5075913;28;20439;-66
2021/08/19 08:23:20;;;;;;;23.60;17.73;;;;;;;;;;5075835;28;20474;-66
2021/08/19 08:25:47;;;;;;;27.70;19.50;;;;;;;;;;5075932;28;20578;-67
2021/08/19 08:28:26;;;;;;;28.87;18.43;;;;;;;;;;5075622;28;20528;-67
2021/08/19 08:30:54;;;;;;;24.70;17.77;;;;;;;;;;5075592;28;20467;-67
2021/08/19 08:33:21;;;;;;;25.67;19.80;;;;;;;;;;5075757;28;20447;-67
2021/08/19 08:35:48;;;;;;;24.97;19.10;;;;;;;;;;5073872;28;20453;-67
2021/08/19 08:38:18;;;;;;;27.53;20.07;;;;;;;;;;5074869;28;20963;-67
2021/08/19 08:40:47;;;;;;;29.67;19.87;;;;;;;;;;5075089;28;20522;-67
2021/08/19 08:43:16;;;;;;;29.90;20.73;;;;;;;;;;5075219;28;20931;-67
2021/08/19 08:45:45;;;;;;;29.63;20.97;;;;;;;;;;5075461;28;20482;-67
2021/08/19 08:48:14;;;;;;;27.97;20.27;;;;;;;;;;5074954;28;20447;-67
2021/08/19 08:50:42;;;;;;;32.13;21.30;;;;;;;;;;5074727;28;20949;-67
2021/08/19 08:53:10;;;;;;;35.50;23.97;;;;;;;;;;5076059;28;20783;-68
2021/08/19 08:55:39;;;;;;;38.53;24.20;;;;;;;;;;5075348;28;20457;-67
2021/08/19 08:58:06;;;;;;;44.40;24.90;;;;;;;;;;5074809;28;20489;-67
2021/08/19 09:00:34;;;;;;;35.93;23.77;;;;;;;;;;5074964;28;20439;-67
2021/08/19 09:03:04;;;;;;;42.00;28.27;;;;;;;;;;5074515;28;20448;-67
2021/08/19 09:05:39;;;;;;;43.10;27.37;;;;;;;;;;5075270;28;20469;-67
2021/08/19 09:08:06;;;;;;;43.60;29.43;;;;;;;;;;5073713;28;20495;-67
2021/08/19 09:10:34;;;;;;;38.47;27.70;;;;;;;;;;5074491;28;20453;-67
2021/08/19 09:13:08;;;;;;;42.83;27.07;;;;;;;;;;5074906;28;20444;-67
2021/08/19 09:15:35;;;;;;;43.43;27.10;;;;;;;;;;5074415;28;20434;-67
2021/08/19 09:18:03;;;;;;;40.97;27.17;;;;;;;;;;5074655;28;20449;-67
2021/08/19 09:20:34;;;;;;;42.00;28.97;;;;;;;;;;5074213;28;20951;-67
2021/08/19 09:23:02;;;;;;;41.80;29.53;;;;;;;;;;5073944;28;20483;-67
2021/08/19 09:25:30;;;;;;;42.90;31.20;;;;;;;;;;5074535;28;20477;-67
2021/08/19 09:28:18;;;;;;;48.20;31.83;;;;;;;;;;5074120;28;20860;-67
2021/08/19 09:30:48;;;;;;;50.27;32.10;;;;;;;;;;5070031;28;20449;-67
2021/08/19 09:33:17;;;;;;;51.90;33.03;;;;;;;;;;5074542;28;20446;-67
2021/08/19 09:35:44;;;;;;;43.30;27.50;;;;;;;;;;5073600;28;21000;-68
2021/08/19 09:38:13;;;;;;;54.73;33.30;;;;;;;;;;5072562;28;20437;-67
2021/08/19 09:40:41;;;;;;;50.27;31.30;;;;;;;;;;5074335;28;20529;-68
2021/08/19 09:43:08;;;;;;;50.83;29.70;;;;;;;;;;5074267;28;20433;-68
2021/08/19 09:45:44;;;;;;;49.83;31.57;;;;;;;;;;5073747;28;21078;-68
2021/08/19 09:48:14;;;;;;;40.47;28.40;;;;;;;;;;5072751;28;20419;-68
2021/08/19 09:50:41;;;;;;;46.33;30.07;;;;;;;;;;5072868;28;20480;-68
2021/08/19 09:53:15;;;;;;;44.10;31.63;;;;;;;;;;5073713;28;20459;-68
2021/08/19 09:55:43;;;;;;;50.13;30.93;;;;;;;;;;5074477;28;20495;-68
2021/08/19 09:58:10;;;;;;;51.00;33.20;;;;;;;;;;5074057;28;20441;-68
2021/08/19 10:00:40;;;;;;;45.67;30.73;;;;;;;;;;5073911;28;20443;-68
2021/08/19 10:03:08;;;;;;;49.80;32.87;;;;;;;;;;5073688;28;20441;-68
2021/08/19 10:05:37;;;;;;;44.80;33.10;;;;;;;;;;5073534;28;21024;-68
2021/08/19 10:08:07;;;;;;;46.90;31.73;;;;;;;;;;5071830;28;20447;-68
2021/08/19 10:10:36;;;;;;;47.67;31.37;;;;;;;;;;5073359;28;20459;-68
2021/08/19 10:13:04;;;;;;;44.53;32.03;;;;;;;;;;5073189;28;20459;-68
2021/08/19 10:15:34;;;;;;;48.67;31.20;;;;;;;;;;5073451;28;20447;-68
2021/08/19 10:18:01;;;;;;;44.30;29.03;;;;;;;;;;5073487;28;20433;-68
2021/08/19 10:20:30;;;;;;;45.90;30.57;;;;;;;;;;5073732;28;20447;-68
2021/08/19 10:23:00;;;;;;;49.00;33.40;;;;;;;;;;5072922;28;20973;-68
2021/08/19 10:25:28;;;;;;;44.07;30.30;;;;;;;;;;5073546;28;20912;-68
2021/08/19 10:28:10;;;;;;;42.27;30.43;;;;;;;;;;5073144;28;20447;-67
2021/08/19 10:30:46;;;;;;;54.13;32.20;;;;;;;;;;5073295;28;20446;-67
2021/08/19 10:33:33;;;;;;;45.20;29.90;;;;;;;;;;5073567;28;20442;-67
2021/08/19 10:36:00;;;;;;;41.57;27.93;;;;;;;;;;5073631;28;20807;-66
2021/08/19 10:38:28;;;;;;;40.60;26.90;;;;;;;;;;5073328;28;20809;-66
2021/08/19 10:40:56;;;;;;;41.80;27.37;;;;;;;;;;5072818;28;20447;-67
2021/08/19 10:43:44;;;;;;;40.13;28.73;;;;;;;;;;5073298;28;20800;-67
2021/08/19 10:46:12;;;;;;;44.77;29.80;;;;;;;;;;5071636;28;20470;-67
2021/08/19 10:48:46;;;;;;;47.67;28.30;;;;;;;;;;5072789;28;20537;-66
2021/08/19 10:51:14;;;;;;;41.40;28.77;;;;;;;;;;5072997;28;20432;-67
2021/08/19 10:53:42;;;;;;;38.90;28.70;;;;;;;;;;5072918;28;20448;-67
2021/08/19 10:56:09;;;;;;;41.17;28.80;;;;;;;;;;5073476;28;20448;-66
2021/08/19 10:58:38;;;;;;;33.50;24.63;;;;;;;;;;5073125;28;20446;-67
2021/08/19 11:01:20;;;;;;;37.60;22.93;;;;;;;;;;5072918;28;20434;-66
2021/08/19 11:03:48;;;;;;;36.23;25.70;;;;;;;;;;5072932;28;20494;-66
2021/08/19 11:06:17;;;;;;;36.40;23.80;;;;;;;;;;5072884;28;20485;-66
2021/08/19 11:08:51;;;;;;;40.83;27.70;;;;;;;;;;5072753;28;21016;-66
2021/08/19 11:11:26;;;;;;;32.93;24.17;;;;;;;;;;5073474;28;20430;-67
2021/08/19 11:13:59;;;;;;;43.63;28.17;;;;;;;;;;5072936;28;20424;-67
2021/08/19 11:16:26;;;;;;;46.07;25.07;;;;;;;;;;5071451;28;20444;-67
2021/08/19 11:18:54;;;;;;;33.50;25.90;;;;;;;;;;5073108;28;20455;-67
2021/08/19 11:21:21;;;;;;;38.50;25.20;;;;;;;;;;5072819;28;20452;-67
2021/08/19 11:23:50;;;;;;;36.67;25.97;;;;;;;;;;5073284;28;20521;-67
2021/08/19 11:26:19;;;;;;;36.13;25.90;;;;;;;;;;5072629;28;20483;-67
2021/08/19 11:28:48;;;;;;;39.77;26.83;;;;;;;;;;5071935;28;20440;-67
2021/08/19 11:31:17;;;;;;;36.07;25.00;;;;;;;;;;5073843;28;20449;-67
2021/08/19 11:33:44;;;;;;;39.37;26.37;;;;;;;;;;5072330;28;20448;-68
2021/08/19 11:36:12;;;;;;;38.70;25.67;;;;;;;;;;5077192;28;20773;-67
2021/08/19 11:38:41;;;;;;;37.00;27.00;;;;;;;;;;5079638;28;20780;-67
2021/08/19 11:41:14;;;;;;;38.50;24.57;;;;;;;;;;5096196;28;20993;-69
2021/08/19 11:43:42;;;;;;;31.57;24.27;;;;;;;;;;5096914;28;20435;-68
2021/08/19 11:46:10;;;;;;;39.90;28.70;;;;;;;;;;5096433;28;20478;-68
2021/08/19 11:48:39;;;;;;;44.03;28.70;;;;;;;;;;5095957;28;20543;-68
2021/08/19 11:51:07;;;;;;;43.13;26.17;;;;;;;;;;5095979;28;20447;-67
2021/08/19 11:53:34;;;;;;;44.77;29.60;;;;;;;;;;5095679;28;20534;-67
2021/08/19 11:56:12;;;;;;;38.30;25.83;;;;;;;;;;5096659;28;20443;-67
2021/08/19 11:58:41;;;;;;;34.33;24.17;;;;;;;;;;5096509;28;20983;-66
2021/08/19 12:01:09;;;;;;;43.60;28.77;;;;;;;;;;5096584;28;20450;-67
2021/08/19 12:03:37;;;;;;;41.67;29.00;;;;;;;;;;5096108;28;20957;-67
2021/08/19 12:06:05;;;;;;;41.33;26.23;;;;;;;;;;5096363;28;20835;-67
2021/08/19 12:08:33;;;;;;;39.23;26.23;;;;;;;;;;5090858;28;20437;-67
2021/08/19 12:11:01;;;;;;;40.90;29.77;;;;;;;;;;5075725;28;20786;-67
2021/08/19 12:13:29;;;;;;;46.07;30.90;;;;;;;;;;5076239;28;20438;-67
2021/08/19 12:15:58;;;;;;;39.03;27.03;;;;;;;;;;5075682;28;20447;-67
2021/08/19 12:18:26;;;;;;;39.37;29.00;;;;;;;;;;5074618;28;20466;-67
2021/08/19 12:21:12;;;;;;;37.77;28.80;;;;;;;;;;5075408;28;20460;-67
2021/08/19 12:23:39;;;;;;;40.33;29.37;;;;;;;;;;5075730;28;20478;-67
2021/08/19 12:26:09;;;;;;;38.27;27.43;;;;;;;;;;5074826;28;20481;-67
2021/08/19 12:28:37;;;;;;;30.47;25.70;;;;;;;;;;5075557;28;20948;-67
2021/08/19 12:31:08;;;;;;;35.57;25.57;;;;;;;;;;5075776;28;20873;-67
2021/08/19 12:33:36;;;;;;;34.23;25.73;;;;;;;;;;5075811;28;20437;-67
2021/08/19 12:36:14;;;;;;;30.17;23.33;;;;;;;;;;5075749;28;20484;-67
2021/08/19 12:38:41;;;;;;;31.00;23.30;;;;;;;;;;5075329;28;20452;-67
2021/08/19 12:41:13;;;;;;;34.40;22.90;;;;;;;;;;5075037;28;20447;-67
2021/08/19 12:43:40;;;;;;;32.87;23.97;;;;;;;;;;5076003;28;20537;-67
2021/08/19 12:46:09;;;;;;;26.40;20.40;;;;;;;;;;5074365;28;20493;-67
2021/08/19 12:48:37;;;;;;;32.03;24.33;;;;;;;;;;5075597;28;20440;-67
2021/08/19 12:51:20;;;;;;;33.53;24.83;;;;;;;;;;5075293;28;20528;-67
2021/08/19 12:54:09;;;;;;;31.40;24.73;;;;;;;;;;5075519;28;20491;-67
2021/08/19 12:56:38;;;;;;;32.60;23.40;;;;;;;;;;5074045;28;20524;-68
2021/08/19 12:59:06;;;;;;;38.63;24.53;;;;;;;;;;5074781;28;20441;-68
2021/08/19 13:01:36;;;;;;;28.83;23.23;;;;;;;;;;5075097;28;20439;-68
2021/08/19 13:04:03;;;;;;;28.10;21.27;;;;;;;;;;5074912;28;20438;-68
2021/08/19 13:06:34;;;;;;;29.83;24.50;;;;;;;;;;5074393;28;20573;-68
2021/08/19 13:09:01;;;;;;;30.03;23.67;;;;;;;;;;5075715;28;20845;-68
2021/08/19 13:11:28;;;;;;;36.30;28.20;;;;;;;;;;5074596;28;20438;-68
2021/08/19 13:13:55;;;;;;;36.43;25.17;;;;;;;;;;5075153;28;20437;-67
2021/08/19 13:16:22;;;;;;;34.27;25.53;;;;;;;;;;5074964;28;20455;-67
2021/08/19 13:18:51;;;;;;;34.87;26.17;;;;;;;;;;5074462;28;20434;-67
2021/08/19 13:21:18;;;;;;;31.47;26.03;;;;;;;;;;5074299;28;20544;-67
2021/08/19 13:23:45;;;;;;;38.50;26.83;;;;;;;;;;5075850;28;20567;-67
2021/08/19 13:26:12;;;;;;;34.80;24.60;;;;;;;;;;5072529;28;20482;-67
2021/08/19 13:28:40;;;;;;;39.90;26.30;;;;;;;;;;5074723;28;20443;-67
2021/08/19 13:31:07;;;;;;;28.53;22.60;;;;;;;;;;5072941;28;20444;-67
2021/08/19 13:33:34;;;;;;;34.50;25.00;;;;;;;;;;5074347;28;20442;-66
2021/08/19 13:36:02;;;;;;;38.97;26.77;;;;;;;;;;5073913;28;20445;-67
2021/08/19 13:38:32;;;;;;;31.83;23.50;;;;;;;;;;5072298;28;20444;-67
2021/08/19 13:40:59;;;;;;;43.60;28.57;;;;;;;;;;5073734;28;20797;-67
2021/08/19 13:43:26;;;;;;;36.80;27.13;;;;;;;;;;5074448;28;20497;-67
2021/08/19 13:45:53;;;;;;;40.17;26.63;;;;;;;;;;5074437;28;20483;-66
2021/08/19 13:48:21;;;;;;;31.50;25.57;;;;;;;;;;5074390;28;20797;-67
2021/08/19 13:50:49;;;;;;;34.73;26.17;;;;;;;;;;5074152;28;20499;-67
2021/08/19 13:53:17;;;;;;;28.80;20.03;;;;;;;;;;5073778;28;20449;-66
2021/08/19 13:55:44;;;;;;;32.83;23.10;;;;;;;;;;5074311;28;20445;-67
2021/08/19 13:58:11;;;;;;;30.23;24.03;;;;;;;;;;5074252;28;20442;-67
2021/08/19 14:00:39;;;;;;;30.20;23.20;;;;;;;;;;5073660;28;20448;-67
2021/08/19 14:03:06;;;;;;;28.60;22.00;;;;;;;;;;5073919;28;20444;-64
2021/08/19 14:05:33;;;;;;;25.93;21.00;;;;;;;;;;5073721;28;20468;-65
2021/08/19 14:08:01;;;;;;;27.30;22.47;;;;;;;;;;5074182;28;20440;-66
2021/08/19 14:10:29;;;;;;;28.80;21.90;;;;;;;;;;5071932;28;20441;-66
2021/08/19 14:12:57;;;;;;;30.43;22.90;;;;;;;;;;5073493;28;20476;-66
2021/08/19 14:15:24;;;;;;;31.83;20.57;;;;;;;;;;5073459;28;20451;-66
2021/08/19 14:17:51;;;;;;;27.70;21.63;;;;;;;;;;5073208;28;20487;-66
2021/08/19 14:20:18;;;;;;;31.07;22.93;;;;;;;;;;5072487;28;20919;-66
2021/08/19 14:22:48;;;;;;;23.93;19.30;;;;;;;;;;5071934;28;20503;-66